Sparta, MI (49345)

12:57 PM EDT on April 25, 2017 (GMT -0400)
Sparta (Downtown, Village of) | | Change Station

Elev 768 ft 43.16 °N, 85.71 °W | Updated 0 second ago

Partly Cloudy
Partly Cloudy
71.8 °F
Feels Like 76 °F
N
4.6
Wind Variable Wind from East
Gusts 13.6 mph

Today
High -- | Low -- °F
--% Chance of Precip.
Yesterday
High -- | Low -- °F
Precip. -- in
Pressure 29.75 in
Visibility 10.0 miles
Clouds Few 3500 ft
Scattered Clouds 25000 ft
Heat Index 76 °F
Dew Point 57 °F
Humidity 60%
Rainfall 0.17 in
Snow Depth Not available.
6:44 AM 8:37 PM
Waning Crescent, 1% visible
METAR KGRR 251653Z 14011G22KT 10SM FEW035 SCT250 21/12 A2975 RMK AO2 SLP072 T02060122
Pressure 29.75 in
Visibility 10.0 miles
Clouds Few 3500 ft
Scattered Clouds 25000 ft
Heat Index 76 °F
Dew Point 57 °F
Humidity 60%
Rainfall 0.17 in
Snow Depth Not available.
6:44 AM 8:37 PM
Waning Crescent, 1% visible
METAR KGRR 251653Z 14011G22KT 10SM FEW035 SCT250 21/12 A2975 RMK AO2 SLP072 T02060122

Get Severe Weather Alerts

Thanks for signing up!

Be on the lookout for a verification email in your inbox.

You'll start receiving the daily forecast at 8 AM.

×

10-Day Weather Forecast

Almanac

Astronomy

Apr. 25, 2017 Rise Set
Actual Time
Civil Twilight
Nautical Twilight
Astronomical Twilight
Moon
Length of Visible Light
Length of Day
Tomorrow will be .
, % of the Moon is Illuminated

Today's Extremes

State Highs State Lows

Community

WunderPhotos

WunderBlog® & News

Nearby

Air Quality

  Air Quality AQ Index Pollutant
Not available.

Snow Depth

Station Depth Elevation

Earthquake Activity

City Distance Mag. Time & Date
Minimum magnitude displayed is 2.5.

Coastal Water Temperatures

Place Temperature

Stations

Nearby Weather Stations

Station Location Temp. Windchill Dew Point Humidity Wind Precip. Elev Updated Type
                   

Watches & Warnings

There are currently no watches in effect.